JIA5289 KDCA-KHPN
Flight info
| Callsign | JIA5289 |
|---|---|
| Flight time | 1h 0m |
| Altitude | 23000 |
| Route | SOOKI6 SWANN BROSS NACYN CYN BOUNO5 |
| Aircraft | CRJ7/M-SDFGIRWY/S |
Departure
| Time | 2026-04-24 00:41 |
|---|---|
| Airport | Ronald Reagan Washington National Airport (KDCA) |
Arrival
| Time | 2026-04-24 01:42 |
|---|---|
| Airport | Westchester County Airport (KHPN) |
| Time | Latitude | Longitude | Altitude | Speed | Heading |
|---|---|---|---|---|---|
| 2026-04-24 00:12 | 38.85840 | -77.04295 | 27 ft | 0 kts | 242° |
| 2026-04-24 00:28 | 38.85840 | -77.04294 | 27 ft | 2 kts | 242° |
| 2026-04-24 00:28 | 38.85842 | -77.04289 | 27 ft | 1 kts | 242° |
| 2026-04-24 00:29 | 38.85844 | -77.04285 | 27 ft | 1 kts | 242° |
| 2026-04-24 00:29 | 38.85847 | -77.04280 | 27 ft | 1 kts | 242° |
| 2026-04-24 00:29 | 38.85850 | -77.04272 | 27 ft | 1 kts | 242° |
| 2026-04-24 00:29 | 38.85852 | -77.04265 | 27 ft | 1 kts | 242° |
| 2026-04-24 00:30 | 38.85856 | -77.04258 | 27 ft | 1 kts | 227° |
| 2026-04-24 00:30 | 38.85861 | -77.04253 | 27 ft | 1 kts | 202° |
| 2026-04-24 00:30 | 38.85867 | -77.04251 | 27 ft | 1 kts | 179° |
| 2026-04-24 00:30 | 38.85873 | -77.04252 | 27 ft | 1 kts | 171° |
| 2026-04-24 00:31 | 38.85880 | -77.04254 | 27 ft | 1 kts | 164° |
| 2026-04-24 00:31 | 38.85886 | -77.04256 | 27 ft | 1 kts | 153° |
| 2026-04-24 00:31 | 38.85887 | -77.04257 | 27 ft | 0 kts | 150° |
| 2026-04-24 00:34 | 38.85886 | -77.04257 | 27 ft | 0 kts | 150° |
| 2026-04-24 00:34 | 38.85880 | -77.04252 | 27 ft | 2 kts | 148° |
| 2026-04-24 00:34 | 38.85858 | -77.04232 | 27 ft | 5 kts | 143° |
| 2026-04-24 00:35 | 38.85819 | -77.04194 | 26 ft | 9 kts | 142° |
| 2026-04-24 00:35 | 38.85767 | -77.04143 | 27 ft | 10 kts | 142° |
| 2026-04-24 00:35 | 38.85708 | -77.04086 | 28 ft | 12 kts | 142° |
| 2026-04-24 00:35 | 38.85636 | -77.04015 | 26 ft | 14 kts | 143° |
| 2026-04-24 00:36 | 38.85555 | -77.03959 | 25 ft | 14 kts | 170° |
| 2026-04-24 00:36 | 38.85449 | -77.03946 | 24 ft | 17 kts | 175° |
| 2026-04-24 00:36 | 38.85320 | -77.03934 | 20 ft | 21 kts | 176° |
| 2026-04-24 00:36 | 38.85176 | -77.03918 | 20 ft | 21 kts | 175° |
| 2026-04-24 00:37 | 38.85027 | -77.03904 | 20 ft | 22 kts | 176° |
| 2026-04-24 00:37 | 38.84884 | -77.03889 | 19 ft | 21 kts | 176° |
| 2026-04-24 00:37 | 38.84748 | -77.03876 | 23 ft | 19 kts | 175° |
| 2026-04-24 00:37 | 38.84620 | -77.03863 | 23 ft | 19 kts | 175° |
| 2026-04-24 00:38 | 38.84489 | -77.03850 | 26 ft | 18 kts | 175° |
| 2026-04-24 00:38 | 38.84369 | -77.03838 | 25 ft | 17 kts | 175° |
| 2026-04-24 00:38 | 38.84261 | -77.03823 | 24 ft | 12 kts | 162° |
| 2026-04-24 00:38 | 38.84234 | -77.03802 | 25 ft | 0 kts | 134° |
| 2026-04-24 00:39 | 38.84233 | -77.03801 | 25 ft | 1 kts | 133° |
| 2026-04-24 00:39 | 38.84221 | -77.03780 | 23 ft | 4 kts | 123° |
| 2026-04-24 00:39 | 38.84201 | -77.03736 | 24 ft | 7 kts | 110° |
| 2026-04-24 00:39 | 38.84213 | -77.03686 | 22 ft | 7 kts | 31° |
| 2026-04-24 00:40 | 38.84244 | -77.03684 | 22 ft | 0 kts | 353° |
| 2026-04-24 00:40 | 38.84325 | -77.03694 | 21 ft | 45 kts | 356° |
| 2026-04-24 00:40 | 38.84919 | -77.03754 | 21 ft | 124 kts | 355° |
| 2026-04-24 00:41 | 38.85955 | -77.03861 | 150 ft | 167 kts | 355° |
| 2026-04-24 00:41 | 38.87134 | -77.04112 | 789 ft | 176 kts | 335° |
| 2026-04-24 00:41 | 38.88079 | -77.05046 | 1716 ft | 162 kts | 315° |
| 2026-04-24 00:41 | 38.88921 | -77.06017 | 2527 ft | 170 kts | 319° |
| 2026-04-24 00:42 | 38.89819 | -77.07025 | 3277 ft | 173 kts | 309° |
| 2026-04-24 00:42 | 38.90436 | -77.08327 | 4067 ft | 171 kts | 299° |
| 2026-04-24 00:42 | 38.91035 | -77.09645 | 4830 ft | 170 kts | 301° |
| 2026-04-24 00:42 | 38.91742 | -77.10854 | 5541 ft | 170 kts | 317° |
| 2026-04-24 00:43 | 38.92684 | -77.11790 | 6195 ft | 176 kts | 324° |
| 2026-04-24 00:43 | 38.93719 | -77.12660 | 6745 ft | 183 kts | 326° |
| 2026-04-24 00:43 | 38.94870 | -77.13568 | 7197 ft | 206 kts | 328° |
| 2026-04-24 00:43 | 38.96197 | -77.14475 | 7784 ft | 225 kts | 332° |
| 2026-04-24 00:44 | 38.97760 | -77.15048 | 8343 ft | 249 kts | 0° |
| 2026-04-24 00:44 | 38.99497 | -77.14461 | 9082 ft | 267 kts | 18° |
| 2026-04-24 00:44 | 39.01145 | -77.13285 | 10043 ft | 276 kts | 31° |
| 2026-04-24 00:44 | 39.02656 | -77.11744 | 10869 ft | 282 kts | 35° |
| 2026-04-24 00:45 | 39.04070 | -77.09920 | 11675 ft | 294 kts | 54° |
| 2026-04-24 00:45 | 39.04786 | -77.07380 | 12284 ft | 315 kts | 76° |
| 2026-04-24 00:45 | 39.05127 | -77.04522 | 12650 ft | 331 kts | 80° |
| 2026-04-24 00:45 | 39.05402 | -77.01591 | 13270 ft | 337 kts | 81° |
| 2026-04-24 00:46 | 39.05686 | -76.98586 | 13931 ft | 340 kts | 80° |
| 2026-04-24 00:46 | 39.06013 | -76.95558 | 14557 ft | 343 kts | 78° |
| 2026-04-24 00:46 | 39.06392 | -76.92523 | 15181 ft | 345 kts | 77° |
| 2026-04-24 00:46 | 39.06785 | -76.89467 | 15811 ft | 347 kts | 77° |
| 2026-04-24 00:47 | 39.07180 | -76.86393 | 16432 ft | 350 kts | 77° |
| 2026-04-24 00:47 | 39.07576 | -76.83281 | 16996 ft | 354 kts | 76° |
| 2026-04-24 00:47 | 39.07974 | -76.80144 | 17578 ft | 357 kts | 77° |
| 2026-04-24 00:47 | 39.08371 | -76.76982 | 18150 ft | 360 kts | 77° |
| 2026-04-24 00:48 | 39.08787 | -76.73796 | 18650 ft | 362 kts | 76° |
| 2026-04-24 00:48 | 39.09231 | -76.70630 | 19113 ft | 366 kts | 76° |
| 2026-04-24 00:48 | 39.09690 | -76.67395 | 19576 ft | 369 kts | 76° |
| 2026-04-24 00:48 | 39.10148 | -76.64128 | 19995 ft | 373 kts | 76° |
| 2026-04-24 00:49 | 39.10613 | -76.60826 | 20443 ft | 376 kts | 76° |
| 2026-04-24 00:49 | 39.11079 | -76.57496 | 20881 ft | 380 kts | 76° |
| 2026-04-24 00:49 | 39.11548 | -76.54139 | 21311 ft | 383 kts | 76° |
| 2026-04-24 00:49 | 39.12019 | -76.50752 | 21737 ft | 386 kts | 77° |
| 2026-04-24 00:50 | 39.12457 | -76.47315 | 22128 ft | 391 kts | 78° |
| 2026-04-24 00:50 | 39.12855 | -76.43831 | 22527 ft | 395 kts | 78° |
| 2026-04-24 00:50 | 39.13254 | -76.40299 | 22772 ft | 404 kts | 78° |
| 2026-04-24 00:50 | 39.13658 | -76.36719 | 22869 ft | 415 kts | 79° |
| 2026-04-24 00:51 | 39.14081 | -76.32984 | 22914 ft | 428 kts | 78° |
| 2026-04-24 00:51 | 39.14515 | -76.29144 | 22935 ft | 440 kts | 79° |
| 2026-04-24 00:51 | 39.14954 | -76.25222 | 22944 ft | 445 kts | 79° |
| 2026-04-24 00:51 | 39.15391 | -76.21247 | 22944 ft | 452 kts | 79° |
| 2026-04-24 00:52 | 39.15820 | -76.17208 | 22946 ft | 458 kts | 79° |
| 2026-04-24 00:52 | 39.16258 | -76.13123 | 22948 ft | 462 kts | 79° |
| 2026-04-24 00:52 | 39.16721 | -76.09015 | 22945 ft | 465 kts | 79° |
| 2026-04-24 00:52 | 39.17184 | -76.04934 | 22938 ft | 468 kts | 79° |
| 2026-04-24 00:53 | 39.17658 | -76.00779 | 22937 ft | 470 kts | 79° |
| 2026-04-24 00:53 | 39.18130 | -75.96598 | 22952 ft | 473 kts | 78° |
| 2026-04-24 00:53 | 39.18616 | -75.92400 | 22938 ft | 473 kts | 77° |
| 2026-04-24 00:53 | 39.19603 | -75.88428 | 22925 ft | 462 kts | 57° |
| 2026-04-24 00:54 | 39.21506 | -75.85178 | 22932 ft | 450 kts | 39° |
| 2026-04-24 00:54 | 39.23850 | -75.82554 | 22933 ft | 444 kts | 33° |
| 2026-04-24 00:54 | 39.26279 | -75.80118 | 22928 ft | 442 kts | 32° |
| 2026-04-24 00:54 | 39.28690 | -75.77678 | 22931 ft | 441 kts | 33° |
| 2026-04-24 00:55 | 39.31020 | -75.75183 | 22924 ft | 441 kts | 35° |
| 2026-04-24 00:55 | 39.33350 | -75.72620 | 22920 ft | 439 kts | 34° |
| 2026-04-24 00:55 | 39.35673 | -75.70070 | 22920 ft | 438 kts | 34° |
| 2026-04-24 00:55 | 39.37992 | -75.67527 | 22935 ft | 437 kts | 34° |
| 2026-04-24 00:56 | 39.40307 | -75.64985 | 22929 ft | 436 kts | 34° |
| 2026-04-24 00:56 | 39.42617 | -75.62448 | 22924 ft | 435 kts | 34° |
| 2026-04-24 00:56 | 39.44924 | -75.59913 | 22926 ft | 434 kts | 34° |
| 2026-04-24 00:56 | 39.47215 | -75.57376 | 22926 ft | 433 kts | 34° |
| 2026-04-24 00:57 | 39.49511 | -75.54854 | 22924 ft | 432 kts | 34° |
| 2026-04-24 00:57 | 39.51801 | -75.52332 | 22925 ft | 432 kts | 34° |
| 2026-04-24 00:57 | 39.56333 | -75.47331 | 22941 ft | 430 kts | 34° |
| 2026-04-24 00:58 | 39.58608 | -75.44811 | 22933 ft | 430 kts | 34° |
| 2026-04-24 00:58 | 39.60720 | -75.42045 | 22941 ft | 440 kts | 49° |
| 2026-04-24 00:58 | 39.62143 | -75.38475 | 22943 ft | 450 kts | 63° |
| 2026-04-24 00:58 | 39.63112 | -75.34590 | 22931 ft | 455 kts | 70° |
| 2026-04-24 00:59 | 39.63856 | -75.30595 | 22932 ft | 456 kts | 72° |
| 2026-04-24 00:59 | 39.64579 | -75.26596 | 22915 ft | 455 kts | 72° |
| 2026-04-24 00:59 | 39.65351 | -75.22622 | 22915 ft | 454 kts | 70° |
| 2026-04-24 00:59 | 39.66175 | -75.18731 | 22910 ft | 453 kts | 69° |
| 2026-04-24 01:00 | 39.67005 | -75.14787 | 22912 ft | 453 kts | 70° |
| 2026-04-24 01:00 | 39.67830 | -75.10843 | 22907 ft | 453 kts | 70° |
| 2026-04-24 01:00 | 39.68650 | -75.06896 | 22906 ft | 453 kts | 70° |
| 2026-04-24 01:00 | 39.69472 | -75.02951 | 22916 ft | 453 kts | 69° |
| 2026-04-24 01:01 | 39.70295 | -74.99010 | 22915 ft | 453 kts | 69° |
| 2026-04-24 01:01 | 39.71111 | -74.95060 | 22912 ft | 453 kts | 70° |
| 2026-04-24 01:01 | 39.71927 | -74.91114 | 22914 ft | 452 kts | 70° |
| 2026-04-24 01:01 | 39.72731 | -74.87220 | 22914 ft | 453 kts | 70° |
| 2026-04-24 01:02 | 39.73545 | -74.83270 | 22913 ft | 453 kts | 70° |
| 2026-04-24 01:02 | 39.74359 | -74.79310 | 22911 ft | 454 kts | 70° |
| 2026-04-24 01:02 | 39.75174 | -74.75350 | 22912 ft | 454 kts | 70° |
| 2026-04-24 01:02 | 39.75984 | -74.71389 | 22912 ft | 454 kts | 70° |
| 2026-04-24 01:03 | 39.76796 | -74.67417 | 22910 ft | 454 kts | 70° |
| 2026-04-24 01:03 | 39.77608 | -74.63454 | 22915 ft | 455 kts | 70° |
| 2026-04-24 01:03 | 39.78416 | -74.59475 | 22916 ft | 455 kts | 70° |
| 2026-04-24 01:03 | 39.79227 | -74.55496 | 22915 ft | 455 kts | 70° |
| 2026-04-24 01:04 | 39.80034 | -74.51514 | 22925 ft | 456 kts | 70° |
| 2026-04-24 01:04 | 39.80841 | -74.47524 | 22931 ft | 456 kts | 70° |
| 2026-04-24 01:04 | 39.81653 | -74.43598 | 22930 ft | 454 kts | 67° |
| 2026-04-24 01:04 | 39.82884 | -74.39875 | 22931 ft | 445 kts | 55° |
| 2026-04-24 01:05 | 39.84441 | -74.36419 | 22951 ft | 442 kts | 52° |
| 2026-04-24 01:05 | 39.86033 | -74.32985 | 22958 ft | 443 kts | 52° |
| 2026-04-24 01:05 | 39.87581 | -74.29503 | 22944 ft | 445 kts | 53° |
| 2026-04-24 01:05 | 39.89069 | -74.25969 | 22941 ft | 446 kts | 54° |
| 2026-04-24 01:06 | 39.90556 | -74.22428 | 22934 ft | 446 kts | 54° |
| 2026-04-24 01:06 | 39.92023 | -74.18925 | 22934 ft | 446 kts | 54° |
| 2026-04-24 01:06 | 39.93525 | -74.15342 | 22934 ft | 446 kts | 54° |
| 2026-04-24 01:06 | 39.95012 | -74.11786 | 22934 ft | 446 kts | 54° |
| 2026-04-24 01:07 | 39.96470 | -74.08286 | 22938 ft | 446 kts | 54° |
| 2026-04-24 01:07 | 39.97952 | -74.04740 | 22865 ft | 448 kts | 54° |
| 2026-04-24 01:07 | 39.99456 | -74.01125 | 22363 ft | 457 kts | 54° |
| 2026-04-24 01:07 | 40.00978 | -73.97466 | 21861 ft | 459 kts | 54° |
| 2026-04-24 01:08 | 40.02483 | -73.93830 | 21379 ft | 451 kts | 54° |
| 2026-04-24 01:08 | 40.03953 | -73.90281 | 20884 ft | 439 kts | 54° |
| 2026-04-24 01:08 | 40.05389 | -73.86825 | 20375 ft | 429 kts | 53° |
| 2026-04-24 01:08 | 40.06796 | -73.83440 | 19882 ft | 420 kts | 53° |
| 2026-04-24 01:09 | 40.08178 | -73.80118 | 19396 ft | 413 kts | 53° |
| 2026-04-24 01:09 | 40.09531 | -73.76853 | 18921 ft | 406 kts | 53° |
| 2026-04-24 01:09 | 40.10920 | -73.73746 | 18447 ft | 392 kts | 44° |
| 2026-04-24 01:09 | 40.12750 | -73.71234 | 17946 ft | 377 kts | 33° |
| 2026-04-24 01:10 | 40.14737 | -73.69050 | 17652 ft | 369 kts | 29° |
| 2026-04-24 01:10 | 40.16755 | -73.67002 | 17386 ft | 367 kts | 28° |
| 2026-04-24 01:10 | 40.18762 | -73.64963 | 17207 ft | 364 kts | 29° |
| 2026-04-24 01:10 | 40.20728 | -73.62887 | 17093 ft | 364 kts | 30° |
| 2026-04-24 01:11 | 40.22694 | -73.60778 | 17046 ft | 367 kts | 30° |
| 2026-04-24 01:11 | 40.24672 | -73.58645 | 17027 ft | 370 kts | 30° |
| 2026-04-24 01:11 | 40.26659 | -73.56506 | 17015 ft | 371 kts | 30° |
| 2026-04-24 01:11 | 40.28631 | -73.54378 | 17010 ft | 373 kts | 30° |
| 2026-04-24 01:12 | 40.30633 | -73.52214 | 17011 ft | 374 kts | 30° |
| 2026-04-24 01:12 | 40.32641 | -73.50043 | 17014 ft | 375 kts | 30° |
| 2026-04-24 01:12 | 40.34652 | -73.47867 | 17008 ft | 375 kts | 30° |
| 2026-04-24 01:12 | 40.36733 | -73.45867 | 17033 ft | 363 kts | 19° |
| 2026-04-24 01:13 | 40.39019 | -73.44644 | 16779 ft | 345 kts | 9° |
| 2026-04-24 01:13 | 40.41273 | -73.43807 | 16522 ft | 330 kts | 6° |
| 2026-04-24 01:13 | 40.43461 | -73.43087 | 16259 ft | 319 kts | 5° |
| 2026-04-24 01:13 | 40.45580 | -73.42388 | 16001 ft | 310 kts | 5° |
| 2026-04-24 01:14 | 40.47643 | -73.41712 | 15738 ft | 302 kts | 5° |
| 2026-04-24 01:14 | 40.49654 | -73.41019 | 15476 ft | 296 kts | 6° |
| 2026-04-24 01:14 | 40.51591 | -73.40331 | 15236 ft | 289 kts | 6° |
| 2026-04-24 01:14 | 40.53507 | -73.39643 | 15104 ft | 283 kts | 6° |
| 2026-04-24 01:15 | 40.55397 | -73.38963 | 15043 ft | 281 kts | 6° |
| 2026-04-24 01:15 | 40.57278 | -73.38285 | 15027 ft | 279 kts | 6° |
| 2026-04-24 01:15 | 40.59146 | -73.37609 | 15011 ft | 278 kts | 5° |
| 2026-04-24 01:15 | 40.61004 | -73.36939 | 15003 ft | 276 kts | 5° |
| 2026-04-24 01:16 | 40.62849 | -73.36274 | 15002 ft | 274 kts | 5° |
| 2026-04-24 01:16 | 40.64684 | -73.35613 | 15000 ft | 273 kts | 5° |
| 2026-04-24 01:16 | 40.66508 | -73.34955 | 15000 ft | 271 kts | 5° |
| 2026-04-24 01:16 | 40.68321 | -73.34300 | 14999 ft | 271 kts | 5° |
| 2026-04-24 01:17 | 40.70117 | -73.33653 | 14999 ft | 272 kts | 5° |
| 2026-04-24 01:17 | 40.71950 | -73.32992 | 14999 ft | 273 kts | 5° |
| 2026-04-24 01:17 | 40.73786 | -73.32328 | 15003 ft | 275 kts | 5° |
| 2026-04-24 01:17 | 40.75633 | -73.31660 | 15005 ft | 276 kts | 5° |
| 2026-04-24 01:18 | 40.77487 | -73.30977 | 15017 ft | 279 kts | 7° |
| 2026-04-24 01:18 | 40.79211 | -73.29596 | 14789 ft | 306 kts | 32° |
| 2026-04-24 01:18 | 40.80666 | -73.27492 | 14554 ft | 314 kts | 40° |
| 2026-04-24 01:18 | 40.81957 | -73.25135 | 14323 ft | 320 kts | 45° |
| 2026-04-24 01:19 | 40.83161 | -73.22653 | 14087 ft | 322 kts | 47° |
| 2026-04-24 01:19 | 40.84336 | -73.20143 | 13858 ft | 320 kts | 47° |
| 2026-04-24 01:19 | 40.85484 | -73.17677 | 13618 ft | 319 kts | 47° |
| 2026-04-24 01:19 | 40.86657 | -73.15203 | 13350 ft | 316 kts | 46° |
| 2026-04-24 01:20 | 40.87837 | -73.12766 | 13090 ft | 314 kts | 46° |
| 2026-04-24 01:20 | 40.89019 | -73.10344 | 12841 ft | 312 kts | 46° |
| 2026-04-24 01:20 | 40.90197 | -73.07939 | 12560 ft | 311 kts | 46° |
| 2026-04-24 01:20 | 40.91370 | -73.05541 | 12247 ft | 310 kts | 46° |
| 2026-04-24 01:21 | 40.92540 | -73.03153 | 11934 ft | 309 kts | 46° |
| 2026-04-24 01:21 | 40.93705 | -73.00779 | 11644 ft | 307 kts | 46° |
| 2026-04-24 01:21 | 40.94863 | -72.98405 | 11341 ft | 306 kts | 46° |
| 2026-04-24 01:21 | 40.96015 | -72.96042 | 11043 ft | 305 kts | 47° |
| 2026-04-24 01:22 | 40.97155 | -72.93709 | 10704 ft | 306 kts | 47° |
| 2026-04-24 01:22 | 40.98310 | -72.91348 | 10334 ft | 306 kts | 47° |
| 2026-04-24 01:22 | 40.99458 | -72.88987 | 9971 ft | 304 kts | 48° |
| 2026-04-24 01:22 | 41.00599 | -72.86639 | 9589 ft | 303 kts | 48° |
| 2026-04-24 01:23 | 41.01898 | -72.84552 | 9182 ft | 283 kts | 27° |
| 2026-04-24 01:23 | 41.03634 | -72.83650 | 8802 ft | 262 kts | 2° |
| 2026-04-24 01:23 | 41.05425 | -72.83361 | 8412 ft | 257 kts | 357° |
| 2026-04-24 01:23 | 41.07186 | -72.83420 | 8033 ft | 251 kts | 347° |
| 2026-04-24 01:24 | 41.08898 | -72.83800 | 7649 ft | 248 kts | 344° |
| 2026-04-24 01:24 | 41.10564 | -72.84267 | 7277 ft | 247 kts | 343° |
| 2026-04-24 01:24 | 41.12240 | -72.84756 | 6976 ft | 245 kts | 343° |
| 2026-04-24 01:24 | 41.13746 | -72.85619 | 6715 ft | 232 kts | 315° |
| 2026-04-24 01:25 | 41.14630 | -72.87356 | 6485 ft | 226 kts | 298° |
| 2026-04-24 01:25 | 41.15317 | -72.89214 | 6240 ft | 223 kts | 295° |
| 2026-04-24 01:25 | 41.15869 | -72.91120 | 5979 ft | 221 kts | 285° |
| 2026-04-24 01:25 | 41.15975 | -72.93130 | 5735 ft | 217 kts | 273° |
| 2026-04-24 01:26 | 41.15946 | -72.95131 | 5496 ft | 217 kts | 272° |
| 2026-04-24 01:26 | 41.15891 | -72.97108 | 5241 ft | 218 kts | 272° |
| 2026-04-24 01:26 | 41.15860 | -72.99117 | 4986 ft | 218 kts | 274° |
| 2026-04-24 01:26 | 41.15876 | -73.01114 | 4769 ft | 216 kts | 275° |
| 2026-04-24 01:27 | 41.15914 | -73.03113 | 4543 ft | 216 kts | 275° |
| 2026-04-24 01:27 | 41.15944 | -73.05084 | 4304 ft | 213 kts | 275° |
| 2026-04-24 01:27 | 41.15971 | -73.07055 | 4129 ft | 213 kts | 275° |
| 2026-04-24 01:27 | 41.15997 | -73.09002 | 4051 ft | 209 kts | 275° |
| 2026-04-24 01:28 | 41.16023 | -73.10904 | 4016 ft | 204 kts | 275° |
| 2026-04-24 01:28 | 41.16075 | -73.12759 | 4000 ft | 201 kts | 278° |
| 2026-04-24 01:28 | 41.16194 | -73.14615 | 3999 ft | 208 kts | 279° |
| 2026-04-24 01:28 | 41.16357 | -73.16553 | 4000 ft | 214 kts | 280° |
| 2026-04-24 01:29 | 41.16515 | -73.18530 | 3999 ft | 217 kts | 279° |
| 2026-04-24 01:29 | 41.16670 | -73.20514 | 3997 ft | 215 kts | 280° |
| 2026-04-24 01:29 | 41.16822 | -73.22486 | 3985 ft | 214 kts | 279° |
| 2026-04-24 01:29 | 41.16973 | -73.24449 | 3989 ft | 213 kts | 279° |
| 2026-04-24 01:30 | 41.17127 | -73.26403 | 3983 ft | 213 kts | 279° |
| 2026-04-24 01:30 | 41.17274 | -73.28349 | 3985 ft | 210 kts | 279° |
| 2026-04-24 01:30 | 41.17417 | -73.30242 | 3968 ft | 202 kts | 279° |
| 2026-04-24 01:30 | 41.17551 | -73.32067 | 3979 ft | 195 kts | 281° |
| 2026-04-24 01:31 | 41.17686 | -73.33811 | 3984 ft | 191 kts | 281° |
| 2026-04-24 01:31 | 41.17818 | -73.35557 | 3985 ft | 190 kts | 281° |
| 2026-04-24 01:31 | 41.17948 | -73.37307 | 3985 ft | 191 kts | 281° |
| 2026-04-24 01:31 | 41.18083 | -73.39061 | 3984 ft | 191 kts | 281° |
| 2026-04-24 01:32 | 41.18218 | -73.40816 | 4002 ft | 191 kts | 281° |
| 2026-04-24 01:32 | 41.18352 | -73.42566 | 4004 ft | 191 kts | 281° |
| 2026-04-24 01:32 | 41.18489 | -73.44308 | 4011 ft | 191 kts | 281° |
| 2026-04-24 01:32 | 41.18630 | -73.46090 | 4010 ft | 192 kts | 281° |
| 2026-04-24 01:33 | 41.18767 | -73.47853 | 3996 ft | 192 kts | 281° |
| 2026-04-24 01:33 | 41.18643 | -73.49619 | 3988 ft | 202 kts | 250° |
| 2026-04-24 01:33 | 41.17606 | -73.50886 | 3988 ft | 215 kts | 212° |
| 2026-04-24 01:33 | 41.16234 | -73.51714 | 3986 ft | 220 kts | 210° |
| 2026-04-24 01:34 | 41.14799 | -73.52522 | 3815 ft | 227 kts | 208° |
| 2026-04-24 01:34 | 41.13327 | -73.53326 | 3657 ft | 231 kts | 208° |
| 2026-04-24 01:34 | 41.11826 | -73.54126 | 3496 ft | 233 kts | 207° |
| 2026-04-24 01:34 | 41.10237 | -73.54665 | 3328 ft | 239 kts | 192° |
| 2026-04-24 01:35 | 41.09133 | -73.54758 | 3210 ft | 241 kts | 182° |
| 2026-04-24 01:35 | 41.07480 | -73.54632 | 3093 ft | 235 kts | 179° |
| 2026-04-24 01:35 | 41.05899 | -73.54449 | 3045 ft | 216 kts | 178° |
| 2026-04-24 01:35 | 41.04066 | -73.54177 | 2999 ft | 191 kts | 177° |
| 2026-04-24 01:36 | 41.02743 | -73.53973 | 2991 ft | 192 kts | 178° |
| 2026-04-24 01:36 | 41.01410 | -73.53794 | 2929 ft | 195 kts | 184° |
| 2026-04-24 01:36 | 41.00050 | -73.53959 | 2733 ft | 198 kts | 194° |
| 2026-04-24 01:36 | 40.99200 | -73.54330 | 2599 ft | 191 kts | 212° |
| 2026-04-24 01:37 | 40.98036 | -73.55046 | 2426 ft | 179 kts | 213° |
| 2026-04-24 01:37 | 40.97132 | -73.56013 | 2222 ft | 162 kts | 237° |
| 2026-04-24 01:37 | 40.96458 | -73.57138 | 2082 ft | 147 kts | 258° |
| 2026-04-24 01:37 | 40.96327 | -73.58393 | 2025 ft | 137 kts | 271° |
| 2026-04-24 01:38 | 40.96167 | -73.60103 | 2005 ft | 144 kts | 276° |
| 2026-04-24 01:38 | 40.96401 | -73.61347 | 2001 ft | 140 kts | 294° |
| 2026-04-24 01:38 | 40.96609 | -73.62176 | 2011 ft | 139 kts | 295° |
| 2026-04-24 01:38 | 40.97082 | -73.63237 | 2020 ft | 134 kts | 308° |
| 2026-04-24 01:39 | 40.97771 | -73.64037 | 1985 ft | 133 kts | 330° |
| 2026-04-24 01:39 | 40.98616 | -73.64528 | 1950 ft | 132 kts | 336° |
| 2026-04-24 01:39 | 40.99449 | -73.65049 | 1803 ft | 132 kts | 329° |
| 2026-04-24 01:39 | 41.00229 | -73.65672 | 1670 ft | 131 kts | 327° |
| 2026-04-24 01:40 | 41.01032 | -73.66287 | 1497 ft | 134 kts | 329° |
| 2026-04-24 01:40 | 41.01828 | -73.66882 | 1388 ft | 128 kts | 327° |
| 2026-04-24 01:40 | 41.02603 | -73.67498 | 1202 ft | 134 kts | 327° |
| 2026-04-24 01:40 | 41.03421 | -73.68154 | 1055 ft | 140 kts | 328° |
| 2026-04-24 01:41 | 41.04242 | -73.68772 | 896 ft | 136 kts | 328° |
| 2026-04-24 01:41 | 41.05075 | -73.69424 | 685 ft | 142 kts | 328° |
| 2026-04-24 01:41 | 41.05926 | -73.70075 | 483 ft | 138 kts | 328° |
| 2026-04-24 01:41 | 41.06639 | -73.70625 | 403 ft | 94 kts | 329° |
| 2026-04-24 01:42 | 41.06983 | -73.70892 | 411 ft | 31 kts | 329° |
| 2026-04-24 01:42 | 41.07079 | -73.70961 | 412 ft | 10 kts | 340° |
| 2026-04-24 01:42 | 41.07105 | -73.70967 | 409 ft | 4 kts | 357° |
| 2026-04-24 01:42 | 41.07160 | -73.70940 | 416 ft | 12 kts | 32° |
| 2026-04-24 01:43 | 41.07214 | -73.70859 | 421 ft | 12 kts | 103° |
| 2026-04-24 01:43 | 41.07122 | -73.70781 | 415 ft | 19 kts | 154° |
| 2026-04-24 01:43 | 41.06985 | -73.70678 | 413 ft | 26 kts | 149° |
| 2026-04-24 01:43 | 41.06864 | -73.70581 | 408 ft | 14 kts | 134° |
| 2026-04-24 01:44 | 41.06842 | -73.70524 | 407 ft | 2 kts | 99° |
| 2026-04-24 01:44 | 41.06842 | -73.70520 | 407 ft | 0 kts | 97° |